createdAt,value
2018-07-04T00:00:53.765Z,2.67
2018-07-04T00:03:33.305Z,2.80
2018-07-04T00:06:12.821Z,2.70
2018-07-04T00:08:52.461Z,12.50
2018-07-04T00:11:31.983Z,2.57
2018-07-04T00:14:11.606Z,2.90
2018-07-04T00:16:51.139Z,2.77
2018-07-04T00:19:30.733Z,2.03
2018-07-04T00:22:10.267Z,3.07
2018-07-04T00:24:49.744Z,3.10
2018-07-04T00:27:29.312Z,2.40
2018-07-04T00:30:08.807Z,2.90
2018-07-04T00:32:48.601Z,2.40
2018-07-04T00:35:28.267Z,2.63
2018-07-04T00:38:07.833Z,2.47
2018-07-04T00:40:47.363Z,5.17
2018-07-04T00:43:26.913Z,2.40
2018-07-04T00:46:06.503Z,2.67
2018-07-04T00:48:45.974Z,3.10
2018-07-04T00:51:25.435Z,2.80
2018-07-04T00:54:05.040Z,2.90
2018-07-04T00:56:44.626Z,3.50
2018-07-04T00:59:24.155Z,3.10
2018-07-04T01:02:03.782Z,3.07
2018-07-04T01:04:43.380Z,3.00
2018-07-04T01:07:23.118Z,2.83
2018-07-04T01:10:02.697Z,3.40
2018-07-04T01:12:42.277Z,3.30
2018-07-04T01:15:21.813Z,3.50
2018-07-04T01:18:01.315Z,3.30
2018-07-04T01:20:46.274Z,3.10
2018-07-04T01:23:25.864Z,3.27
2018-07-04T01:26:05.541Z,4.00
2018-07-04T01:28:48.114Z,3.63
2018-07-04T01:31:27.609Z,3.20
2018-07-04T01:34:07.430Z,4.47
2018-07-04T01:36:47.572Z,4.33
2018-07-04T01:39:27.172Z,4.57
2018-07-04T01:42:06.603Z,5.20
2018-07-04T01:44:46.061Z,4.50
2018-07-04T01:47:25.716Z,3.97
2018-07-04T01:50:05.430Z,4.47
2018-07-04T01:52:44.969Z,4.20
2018-07-04T01:55:24.462Z,3.97
2018-07-04T01:58:03.993Z,4.27
2018-07-04T02:00:43.594Z,4.27
2018-07-04T02:03:23.143Z,4.40
2018-07-04T02:06:02.725Z,5.80
2018-07-04T02:08:42.273Z,4.50
2018-07-04T02:11:21.864Z,5.70
2018-07-04T02:14:01.301Z,5.00
2018-07-04T02:16:40.893Z,5.80
2018-07-04T02:19:20.352Z,4.70
2018-07-04T02:22:00.049Z,5.40
2018-07-04T02:24:39.621Z,5.53
2018-07-04T02:27:19.225Z,6.07
2018-07-04T02:29:58.824Z,19.33
2018-07-04T02:32:38.411Z,6.33
2018-07-04T02:35:17.954Z,5.40
2018-07-04T02:37:57.520Z,5.47
2018-07-04T02:40:37.081Z,5.53
2018-07-04T02:43:16.657Z,5.43
2018-07-04T02:45:56.208Z,7.70
2018-07-04T02:48:35.773Z,6.90
2018-07-04T02:51:15.365Z,6.63
2018-07-04T02:53:54.978Z,6.40
2018-07-04T02:56:34.647Z,6.37
2018-07-04T02:59:14.114Z,7.00
2018-07-04T03:01:54.726Z,6.80
2018-07-04T03:04:34.367Z,6.50
2018-07-04T03:07:14.215Z,6.37
2018-07-04T03:09:53.768Z,6.83
2018-07-04T03:12:33.367Z,6.60
2018-07-04T03:15:12.849Z,6.50
2018-07-04T03:17:52.424Z,5.40
2018-07-04T03:20:32.033Z,5.90
2018-07-04T03:23:11.537Z,6.50
2018-07-04T03:25:51.231Z,5.33
2018-07-04T03:28:30.792Z,5.93
2018-07-04T03:31:10.397Z,5.93
2018-07-04T03:33:49.986Z,6.37
2018-07-04T03:36:29.541Z,6.70
2018-07-04T03:39:09.159Z,6.90
2018-07-04T03:41:48.722Z,6.37
2018-07-04T03:44:28.292Z,6.60
2018-07-04T03:47:07.850Z,5.67
2018-07-04T03:49:47.439Z,6.60
2018-07-04T03:52:26.918Z,6.50
2018-07-04T03:55:06.460Z,7.10
2018-07-04T03:57:46.036Z,7.27
2018-07-04T04:00:25.550Z,6.70
2018-07-04T04:03:05.120Z,6.97
2018-07-04T04:05:44.716Z,6.27
2018-07-04T04:08:24.300Z,6.33
2018-07-04T04:11:03.932Z,6.03
2018-07-04T04:13:43.399Z,6.90
2018-07-04T04:16:22.939Z,7.60
2018-07-04T04:19:02.544Z,6.57
2018-07-04T04:21:42.135Z,6.70
2018-07-04T04:24:21.765Z,7.40
2018-07-04T04:27:01.498Z,6.27
2018-07-04T04:29:41.202Z,6.73
2018-07-04T04:32:20.749Z,7.77
2018-07-04T04:35:00.429Z,7.77
2018-07-04T04:37:39.967Z,7.50
2018-07-04T04:40:19.533Z,8.13
2018-07-04T04:42:58.991Z,6.90
2018-07-04T04:45:38.476Z,7.43
2018-07-04T04:48:17.940Z,7.50
2018-07-04T04:50:57.503Z,6.50
2018-07-04T04:53:36.982Z,7.30
2018-07-04T04:56:16.592Z,6.50
2018-07-04T04:58:56.094Z,6.43
2018-07-04T05:01:35.644Z,7.23
2018-07-04T05:04:15.246Z,7.10
2018-07-04T05:06:54.709Z,7.13
2018-07-04T05:09:34.287Z,6.73
2018-07-04T05:12:13.958Z,6.43
2018-07-04T05:14:53.593Z,7.40
2018-07-04T05:17:33.156Z,7.30
2018-07-04T05:20:12.834Z,8.30
2018-07-04T05:22:52.404Z,8.97
2018-07-04T05:25:31.988Z,8.67
2018-07-04T05:28:11.611Z,8.33
2018-07-04T05:30:51.037Z,8.40
2018-07-04T05:33:30.756Z,8.23
2018-07-04T05:36:10.311Z,7.70
2018-07-04T05:38:49.889Z,8.80
2018-07-04T05:41:29.509Z,8.57
2018-07-04T05:44:09.020Z,9.23
2018-07-04T05:46:48.563Z,9.17
2018-07-04T05:49:28.294Z,8.97
2018-07-04T05:52:08.053Z,8.73
2018-07-04T05:54:47.686Z,9.43
2018-07-04T05:57:27.140Z,9.20
2018-07-04T06:00:06.730Z,8.60
2018-07-04T06:02:46.259Z,8.23
2018-07-04T06:05:25.846Z,8.27
2018-07-04T06:08:05.508Z,9.20
2018-07-04T06:10:45.162Z,10.27
2018-07-04T06:13:24.833Z,9.17
2018-07-04T06:16:04.459Z,10.37
2018-07-04T06:18:44.105Z,10.17
2018-07-04T06:21:23.591Z,9.97
2018-07-04T06:24:03.134Z,10.97
2018-07-04T06:26:42.743Z,11.30
2018-07-04T06:29:22.365Z,11.40
2018-07-04T06:32:01.981Z,10.97
2018-07-04T06:34:41.655Z,11.93
2018-07-04T06:37:21.226Z,11.00
2018-07-04T06:39:48.575Z,11.77
2018-07-04T06:42:15.910Z,9.97
2018-07-04T06:44:43.255Z,11.83
2018-07-04T06:47:10.602Z,11.93
2018-07-04T06:49:37.948Z,11.47
2018-07-04T06:52:05.303Z,11.60
2018-07-04T06:54:32.709Z,9.83
2018-07-04T06:57:00.040Z,10.60
2018-07-04T06:59:27.403Z,9.83
2018-07-04T07:02:08.388Z,9.30
2018-07-04T07:04:48.820Z,8.73
2018-07-04T07:07:28.292Z,9.10
2018-07-04T07:10:07.958Z,7.60
2018-07-04T07:12:47.748Z,9.80
2018-07-04T07:15:27.530Z,8.40
2018-07-04T07:18:06.975Z,8.73
2018-07-04T07:20:46.556Z,8.23
2018-07-04T07:23:26.036Z,8.97
2018-07-04T07:26:05.587Z,7.80
2018-07-04T07:28:45.373Z,8.00
2018-07-04T07:31:25.420Z,9.10
2018-07-04T07:34:05.802Z,7.63
2018-07-04T07:36:45.670Z,8.73
2018-07-04T07:39:25.439Z,8.50
2018-07-04T07:42:05.740Z,7.27
2018-07-04T07:44:45.791Z,9.80
2018-07-04T07:47:25.397Z,9.03
2018-07-04T07:50:04.990Z,7.97
2018-07-04T07:52:44.589Z,7.87
2018-07-04T07:55:24.157Z,7.30
2018-07-04T07:58:03.746Z,8.00
2018-07-04T08:00:43.326Z,8.80
2018-07-04T08:03:23.082Z,8.20
2018-07-04T08:06:02.719Z,10.17
2018-07-04T08:08:42.197Z,9.30
2018-07-04T08:11:21.669Z,8.50
2018-07-04T08:14:01.226Z,10.63
2018-07-04T08:16:40.864Z,9.03
2018-07-04T08:19:20.455Z,8.63
2018-07-04T08:22:00.095Z,10.07
2018-07-04T08:24:39.696Z,11.30
2018-07-04T08:27:19.325Z,10.60
2018-07-04T08:29:58.884Z,10.80
2018-07-04T08:32:38.462Z,11.03
2018-07-04T08:35:18.066Z,9.73
2018-07-04T08:37:57.606Z,11.20
2018-07-04T08:40:37.150Z,9.57
2018-07-04T08:43:16.611Z,11.60
2018-07-04T08:45:56.315Z,10.60
2018-07-04T08:48:36.069Z,12.17
2018-07-04T08:51:15.642Z,10.77
2018-07-04T08:53:55.189Z,10.90
2018-07-04T08:56:34.778Z,10.90
2018-07-04T08:59:14.351Z,9.70
2018-07-04T09:01:53.969Z,10.20
2018-07-04T09:04:33.691Z,10.80
2018-07-04T09:07:13.383Z,10.67
2018-07-04T09:09:53.088Z,11.27
2018-07-04T09:12:32.720Z,11.33
2018-07-04T09:15:12.288Z,11.37
2018-07-04T09:17:51.892Z,12.93
2018-07-04T09:20:31.494Z,10.10
2018-07-04T09:23:11.185Z,9.50
2018-07-04T09:25:50.740Z,10.03
2018-07-04T09:28:30.373Z,9.80
2018-07-04T09:31:09.852Z,10.73
2018-07-04T09:33:49.472Z,11.63
2018-07-04T09:36:29.173Z,11.13
2018-07-04T09:39:08.741Z,11.97
2018-07-04T09:41:48.336Z,10.80
2018-07-04T09:44:27.960Z,9.53
2018-07-04T09:47:07.659Z,10.43
2018-07-04T09:49:47.429Z,10.57
2018-07-04T09:52:27.106Z,12.07
2018-07-04T09:55:06.823Z,10.43
2018-07-04T09:57:46.441Z,12.30
2018-07-04T10:00:28.446Z,9.63
2018-07-04T10:03:08.705Z,9.57
2018-07-04T10:05:48.327Z,11.50
2018-07-04T10:08:28.793Z,11.57
2018-07-04T10:11:08.723Z,11.53
2018-07-04T10:13:48.431Z,9.90
2018-07-04T10:16:27.993Z,11.10
2018-07-04T10:19:07.440Z,10.00
2018-07-04T10:21:47.001Z,10.97
2018-07-04T10:24:26.583Z,11.40
2018-07-04T10:27:06.359Z,10.90
2018-07-04T10:29:45.912Z,8.90
2018-07-04T10:32:25.507Z,12.63
2018-07-04T10:35:05.049Z,9.23
2018-07-04T10:37:44.581Z,8.80
2018-07-04T10:40:24.263Z,10.40
2018-07-04T10:43:03.768Z,11.17
2018-07-04T10:45:43.455Z,9.83
2018-07-04T10:48:23.008Z,10.50
2018-07-04T10:51:02.776Z,10.63
2018-07-04T10:53:42.612Z,10.13
2018-07-04T10:56:22.373Z,9.33
2018-07-04T10:59:01.997Z,10.07
2018-07-04T11:01:41.675Z,11.20
2018-07-04T11:04:21.382Z,8.50
2018-07-04T11:07:00.998Z,10.40
2018-07-04T11:09:40.715Z,9.23
2018-07-04T11:12:20.236Z,10.57
2018-07-04T11:14:59.824Z,9.67
2018-07-04T11:17:39.403Z,9.27
2018-07-04T11:20:18.929Z,8.87
2018-07-04T11:22:58.499Z,8.33
2018-07-04T11:25:38.092Z,9.90
2018-07-04T11:28:17.724Z,12.33
2018-07-04T11:30:57.293Z,8.97
2018-07-04T11:33:36.828Z,9.07
2018-07-04T11:36:16.436Z,9.37
2018-07-04T11:38:56.089Z,8.90
2018-07-04T11:41:35.730Z,9.70
2018-07-04T11:44:15.178Z,9.20
2018-07-04T11:46:42.694Z,9.33
2018-07-04T11:49:10.065Z,8.43
2018-07-04T11:51:37.413Z,8.90
2018-07-04T11:54:04.799Z,8.67
2018-07-04T11:56:32.252Z,8.00
2018-07-04T11:58:59.572Z,7.23
2018-07-04T12:01:26.988Z,8.07
2018-07-04T12:04:06.565Z,7.30
2018-07-04T12:06:46.186Z,6.73
2018-07-04T12:09:13.564Z,6.77
2018-07-04T12:11:40.953Z,7.37
2018-07-04T12:14:08.326Z,7.67
2018-07-04T12:16:35.670Z,8.30
2018-07-04T12:19:03.016Z,8.43
2018-07-04T12:21:30.391Z,7.63
2018-07-04T12:23:57.745Z,6.90
2018-07-04T12:26:25.083Z,6.93
2018-07-04T12:28:52.454Z,8.60
2018-07-04T12:31:19.818Z,7.20
2018-07-04T12:33:47.167Z,10.17
2018-07-04T12:36:14.535Z,9.03
2018-07-04T12:38:41.893Z,9.20
2018-07-04T12:41:09.237Z,10.87
2018-07-04T12:43:36.668Z,10.30
2018-07-04T12:46:03.984Z,10.63
2018-07-04T12:48:31.358Z,8.60
2018-07-04T12:50:58.722Z,8.90
2018-07-04T12:53:26.098Z,9.47
2018-07-04T12:56:05.684Z,6.90
2018-07-04T12:58:45.268Z,9.50
2018-07-04T13:01:25.035Z,8.40
2018-07-04T13:04:04.756Z,7.47
2018-07-04T13:06:44.380Z,8.03
2018-07-04T13:09:23.988Z,7.20
2018-07-04T13:12:04.146Z,8.90
2018-07-04T13:14:44.291Z,8.17
2018-07-04T13:17:24.081Z,8.10
2018-07-04T13:20:03.687Z,8.77
2018-07-04T13:22:43.260Z,7.97
2018-07-04T13:25:22.763Z,7.50
2018-07-04T13:28:02.341Z,7.57
2018-07-04T13:30:42.014Z,8.60
2018-07-04T13:33:21.616Z,7.97
2018-07-04T13:36:01.333Z,7.00
2018-07-04T13:38:40.980Z,8.47
2018-07-04T13:41:20.651Z,8.37
2018-07-04T13:44:00.429Z,8.20
2018-07-04T13:46:40.148Z,7.57
2018-07-04T13:49:19.837Z,7.53
2018-07-04T13:51:59.394Z,8.03
2018-07-04T13:54:38.959Z,6.77
2018-07-04T13:57:18.546Z,6.77
2018-07-04T13:59:58.185Z,5.73
2018-07-04T14:02:37.744Z,8.37
2018-07-04T14:05:17.294Z,6.43
2018-07-04T14:07:58.136Z,6.30
2018-07-04T14:10:37.767Z,7.77
2018-07-04T14:13:17.305Z,7.00
2018-07-04T14:15:56.893Z,8.47
2018-07-04T14:18:36.352Z,6.20
2018-07-04T14:21:15.945Z,6.47
2018-07-04T14:23:56.011Z,6.93
2018-07-04T14:26:35.753Z,5.90
2018-07-04T14:29:15.507Z,5.30
2018-07-04T14:31:55.088Z,6.80
2018-07-04T14:34:34.671Z,5.93
2018-07-04T14:37:14.281Z,7.10
2018-07-04T14:39:53.849Z,5.17
2018-07-04T14:42:33.499Z,7.23
2018-07-04T14:45:13.119Z,5.70
2018-07-04T14:47:52.821Z,5.73
2018-07-04T14:50:32.447Z,5.93
2018-07-04T14:53:12.290Z,6.60
2018-07-04T14:55:52.001Z,5.60
2018-07-04T14:58:31.541Z,4.87
2018-07-04T15:01:10.992Z,5.73
2018-07-04T15:03:50.569Z,5.60
2018-07-04T15:06:30.064Z,5.70
2018-07-04T15:09:09.630Z,5.13
2018-07-04T15:11:49.189Z,6.07
2018-07-04T15:14:28.919Z,5.27
2018-07-04T15:17:08.452Z,7.13
2018-07-04T15:19:48.085Z,6.80
2018-07-04T15:22:27.768Z,5.57
2018-07-04T15:25:07.312Z,5.70
2018-07-04T15:27:46.901Z,7.27
2018-07-04T15:30:26.489Z,5.70
2018-07-04T15:33:06.059Z,5.30
2018-07-04T15:35:45.607Z,7.30
2018-07-04T15:38:25.192Z,7.00
2018-07-04T15:41:04.704Z,6.93
2018-07-04T15:43:44.136Z,7.00
2018-07-04T15:46:23.724Z,7.50
2018-07-04T15:49:03.434Z,6.33
2018-07-04T15:51:43.061Z,7.10
2018-07-04T15:54:22.499Z,6.33
2018-07-04T15:57:02.073Z,5.87
2018-07-04T15:59:41.543Z,5.63
2018-07-04T16:02:21.075Z,5.90
2018-07-04T16:05:00.659Z,5.57
2018-07-04T16:07:40.350Z,6.50
2018-07-04T16:10:19.872Z,5.53
2018-07-04T16:12:59.348Z,6.80
2018-07-04T16:15:39.039Z,5.03
2018-07-04T16:18:18.609Z,4.27
2018-07-04T16:20:58.301Z,6.03
2018-07-04T16:23:37.870Z,4.97
2018-07-04T16:26:17.436Z,4.73
2018-07-04T16:28:56.931Z,5.03
2018-07-04T16:31:36.497Z,5.20
2018-07-04T16:34:16.303Z,4.50
2018-07-04T16:36:55.961Z,5.33
2018-07-04T16:39:35.537Z,5.47
2018-07-04T16:42:15.119Z,5.50
2018-07-04T16:44:54.718Z,4.70
2018-07-04T16:47:34.264Z,5.37
2018-07-04T16:50:13.738Z,6.10
2018-07-04T16:52:53.267Z,4.90
2018-07-04T16:55:32.856Z,5.83
2018-07-04T16:58:12.561Z,6.10
2018-07-04T17:00:52.118Z,6.90
2018-07-04T17:03:31.669Z,5.53
2018-07-04T17:06:11.737Z,6.80
2018-07-04T17:08:51.524Z,7.30
2018-07-04T17:11:31.256Z,9.10
2018-07-04T17:14:10.989Z,6.27
2018-07-04T17:16:50.497Z,6.37
2018-07-04T17:19:30.090Z,6.10
2018-07-04T17:22:09.655Z,7.03
2018-07-04T17:24:49.139Z,5.87
2018-07-04T17:27:28.762Z,6.60
2018-07-04T17:30:08.258Z,5.63
2018-07-04T17:32:47.735Z,6.07
2018-07-04T17:35:27.300Z,5.33
2018-07-04T17:38:06.905Z,6.80
2018-07-04T17:40:46.551Z,6.60
2018-07-04T17:43:26.115Z,5.67
2018-07-04T17:46:05.603Z,6.13
2018-07-04T17:48:45.079Z,5.60
2018-07-04T17:51:24.540Z,5.67
2018-07-04T17:54:04.102Z,5.93
2018-07-04T17:56:43.676Z,5.80
2018-07-04T17:59:23.414Z,6.33
2018-07-04T18:02:02.909Z,6.70
2018-07-04T18:04:42.476Z,7.27
2018-07-04T18:07:22.191Z,6.70
2018-07-04T18:10:02.645Z,5.70
2018-07-04T18:12:42.125Z,7.13
2018-07-04T18:15:21.712Z,6.00
2018-07-04T18:18:01.346Z,6.00
2018-07-04T18:20:40.903Z,7.50
2018-07-04T18:23:20.506Z,9.00
2018-07-04T18:26:00.072Z,8.90
2018-07-04T18:28:39.628Z,10.83
2018-07-04T18:31:19.213Z,9.43
2018-07-04T18:33:58.764Z,8.93
2018-07-04T18:36:38.360Z,9.60
2018-07-04T18:39:17.820Z,8.30
2018-07-04T18:41:57.338Z,9.63
2018-07-04T18:44:36.813Z,8.60
2018-07-04T18:47:16.418Z,9.03
2018-07-04T18:49:55.899Z,9.80
2018-07-04T18:52:35.580Z,11.00
2018-07-04T18:55:15.231Z,8.30
2018-07-04T18:57:54.832Z,8.77
2018-07-04T19:00:34.383Z,9.60
2018-07-04T19:03:13.889Z,9.20
2018-07-04T19:05:53.634Z,10.17
2018-07-04T19:08:33.102Z,10.17
2018-07-04T19:11:12.637Z,10.70
2018-07-04T19:13:52.287Z,10.50
2018-07-04T19:16:32.029Z,10.83
2018-07-04T19:19:11.689Z,9.60
2018-07-04T19:21:51.379Z,8.30
2018-07-04T19:24:31.087Z,9.77
2018-07-04T19:27:10.685Z,11.10
2018-07-04T19:29:50.179Z,10.40
2018-07-04T19:32:29.849Z,10.43
2018-07-04T19:35:09.426Z,10.40
2018-07-04T19:37:48.900Z,9.60
2018-07-04T19:40:28.460Z,10.63
2018-07-04T19:43:07.970Z,9.93
2018-07-04T19:45:47.678Z,10.33
2018-07-04T19:48:27.314Z,10.80
2018-07-04T19:51:06.850Z,11.20
2018-07-04T19:53:46.419Z,10.80
2018-07-04T19:56:26.033Z,11.13
2018-07-04T19:59:05.616Z,10.73
2018-07-04T20:01:45.177Z,11.80
2018-07-04T20:04:24.679Z,11.67
2018-07-04T20:07:04.339Z,10.23
2018-07-04T20:09:43.910Z,12.03
2018-07-04T20:12:23.450Z,11.70
2018-07-04T20:15:02.951Z,12.90
2018-07-04T20:17:42.641Z,10.43
2018-07-04T20:20:22.243Z,11.20
2018-07-04T20:23:01.961Z,12.20
2018-07-04T20:25:41.672Z,11.73
2018-07-04T20:28:21.214Z,14.37
2018-07-04T20:31:00.939Z,28.50
2018-07-04T20:33:40.609Z,27.80
2018-07-04T20:36:20.114Z,31.00
2018-07-04T20:38:59.719Z,30.77
2018-07-04T20:41:39.284Z,30.40
2018-07-04T20:44:18.866Z,28.47
2018-07-04T20:46:58.436Z,24.83
2018-07-04T20:49:38.140Z,24.07
2018-07-04T20:52:17.795Z,19.07
2018-07-04T20:54:57.267Z,16.60
2018-07-04T20:57:36.858Z,14.90
2018-07-04T21:00:16.444Z,12.90
2018-07-04T21:02:56.080Z,11.60
2018-07-04T21:05:35.659Z,11.23
2018-07-04T21:08:15.386Z,10.87
2018-07-04T21:10:55.068Z,9.90
2018-07-04T21:13:34.601Z,11.43
2018-07-04T21:16:14.197Z,9.80
2018-07-04T21:18:53.775Z,9.57
2018-07-04T21:21:33.495Z,11.23
2018-07-04T21:24:13.079Z,10.60
2018-07-04T21:26:52.732Z,9.80
2018-07-04T21:29:32.397Z,11.30
2018-07-04T21:32:12.242Z,11.70
2018-07-04T21:34:51.922Z,12.17
2018-07-04T21:37:31.589Z,11.53
2018-07-04T21:40:11.067Z,12.53
2018-07-04T21:42:50.643Z,13.60
2018-07-04T21:45:30.496Z,11.60
2018-07-04T21:48:10.094Z,11.10
2018-07-04T21:50:49.698Z,9.57
2018-07-04T21:53:30.267Z,10.87
2018-07-04T21:56:09.817Z,9.53
2018-07-04T21:58:49.331Z,8.10
2018-07-04T22:01:28.933Z,7.80
2018-07-04T22:04:08.781Z,4.83
2018-07-04T22:06:48.165Z,5.60
2018-07-04T22:09:27.762Z,5.33
2018-07-04T22:12:07.307Z,4.43
2018-07-04T22:14:46.808Z,5.40
2018-07-04T22:17:26.475Z,4.87
2018-07-04T22:20:06.152Z,6.10
2018-07-04T22:22:46.015Z,6.00
2018-07-04T22:25:25.683Z,5.63
2018-07-04T22:28:05.350Z,5.70
2018-07-04T22:30:44.943Z,6.87
2018-07-04T22:33:25.099Z,7.83
2018-07-04T22:36:04.926Z,14.43
2018-07-04T22:38:44.539Z,22.77
2018-07-04T22:41:24.005Z,29.37
2018-07-04T22:44:04.568Z,28.50
2018-07-04T22:46:44.074Z,32.97
2018-07-04T22:49:23.613Z,35.00
2018-07-04T22:52:03.209Z,36.00
2018-07-04T22:54:43.163Z,34.40
2018-07-04T22:57:22.756Z,38.77
2018-07-04T23:00:02.377Z,41.10
2018-07-04T23:02:42.183Z,41.60
2018-07-04T23:05:21.781Z,44.03
2018-07-04T23:08:01.355Z,48.83
2018-07-04T23:10:40.844Z,50.83
2018-07-04T23:13:20.403Z,49.73
2018-07-04T23:16:00.094Z,50.03
2018-07-04T23:18:39.390Z,50.23
2018-07-04T23:21:18.923Z,45.60
2018-07-04T23:23:58.636Z,45.80
2018-07-04T23:26:38.245Z,49.37
2018-07-04T23:29:17.780Z,51.70
2018-07-04T23:31:57.326Z,54.20
2018-07-04T23:34:36.982Z,54.40
2018-07-04T23:37:16.575Z,51.70
2018-07-04T23:39:56.054Z,52.87
2018-07-04T23:42:35.584Z,55.37
2018-07-04T23:45:15.133Z,60.20
2018-07-04T23:47:54.555Z,54.07
2018-07-04T23:50:34.141Z,49.13
2018-07-04T23:53:13.613Z,50.40
2018-07-04T23:55:53.290Z,49.80
2018-07-04T23:58:32.844Z,46.23
